Inversion Research: Below Escarpment

*Note: All times are displayed in the local standard time of the station location.
**Rain - Equipment is designed to accurately record liquid precipitation; under conditions when precipitation is not in liquid form, the data displayed may not properly reflect rainfall values.

Date Max Temp
(°C)
Min Temp
(°C)
Avg Temp
(°C)
Rain (mm) Avg RH (%)
Sun, May 19, 2019 30.8 8.2 17.7 - 80.8
Sat, May 18, 2019 16.5 5.0 11.6 - 79.0
Fri, May 17, 2019 18.7 9.7 14.9 - 78.6
Thu, May 16, 2019 17.7 5.6 12.6 - 84.9
Wed, May 15, 2019 20.8 5.3 12.1 - 86.0
Tue, May 14, 2019 13.5 5.0 8.3 - 92.4
Mon, May 13, 2019 9.6 5.1 6.9 - 99.9
DateTime Avg Temp (°C) Rain (mm) RH (%)
Mon, May 20, 2019 13:00 19.8 - 62.8
Mon, May 20, 2019 12:00 18.5 - 70.9
Mon, May 20, 2019 11:00 18.9 - 72.5
Mon, May 20, 2019 10:00 18.5 - 81.4
Mon, May 20, 2019 09:00 17.3 - 89.7
Mon, May 20, 2019 08:00 17.2 - 95.6
Mon, May 20, 2019 07:00 16.5 - 99.9
Mon, May 20, 2019 06:00 16.7 - 99.9
Mon, May 20, 2019 05:00 17.5 - 98.3
Mon, May 20, 2019 04:00 17.8 - 95.8
Mon, May 20, 2019 03:00 17.5 - 95.5
Mon, May 20, 2019 02:00 17.2 - 97.7
Mon, May 20, 2019 01:00 15.7 - 99.9
Mon, May 20, 2019 00:00 15.6 - 99.9
Sun, May 19, 2019 23:00 16.9 - 99.9
Sun, May 19, 2019 22:00 16.1 - 99.9
Sun, May 19, 2019 21:00 19.7 - 90.6
Sun, May 19, 2019 20:00 21.3 - 72.5
Sun, May 19, 2019 19:00 26.0 - 56.4
Sun, May 19, 2019 18:00 28.9 - 50.3
Sun, May 19, 2019 17:00 30.6 - 49.5
Sun, May 19, 2019 16:00 30.5 - 54.4
Sun, May 19, 2019 15:00 27.8 - 63.6
Sun, May 19, 2019 14:00 23.9 - 69.3
Sun, May 19, 2019 13:00 23.6 - 66.8
Sun, May 19, 2019 12:00 19.0 - 72.1
Sun, May 19, 2019 11:00 17.9 - 72.7
Sun, May 19, 2019 10:00 16.9 - 75.1
Sun, May 19, 2019 09:00 13.2 - 80.6
Sun, May 19, 2019 08:00 10.1 - 90.9
Sun, May 19, 2019 07:00 8.4 - 98.8
Sun, May 19, 2019 06:00 8.4 - 96.1
Sun, May 19, 2019 05:00 8.7 - 97.5
Sun, May 19, 2019 04:00 8.9 - 98.0
Sun, May 19, 2019 03:00 9.5 - 99.1
Sun, May 19, 2019 02:00 10.5 - 95.3
Sun, May 19, 2019 01:00 11.5 - 89.6
Sun, May 19, 2019 00:00 12.3 - 77.9
Sat, May 18, 2019 23:00 13.0 - 72.7
Sat, May 18, 2019 22:00 13.6 - 70.0
Sat, May 18, 2019 21:00 13.4 - 67.7
Sat, May 18, 2019 20:00 14.3 - 67.0
Sat, May 18, 2019 19:00 14.8 - 61.8
Sat, May 18, 2019 18:00 15.7 - 58.1
Sat, May 18, 2019 17:00 16.3 - 56.7
Sat, May 18, 2019 16:00 15.8 - 61.6
Sat, May 18, 2019 15:00 13.7 - 73.8
Sat, May 18, 2019 14:00 12.9 - 76.5


asterix Register now to access more data! asterix